Time;durP1;ratioP1;P1;durP2;ratioP2;P2;SDS_P1;SDS_P2;PMS_P1;PMS_P2;Temp;Humidity;BMP_temperature;BMP_pressure;BME280_temperature;BME280_humidity;BME280_pressure;Samples;Min_cycle;Max_cycle;Signal;HPM_P1;HPM_P2
2023/06/05 00:01:34;;;;;;;8.43;2.10;;;;;;;19.77;33.65;100703.13;4101796;28;20094;-68
2023/06/05 00:03:37;;;;;;;3.10;1.83;;;;;;;19.71;34.00;100703.25;4097618;28;20071;-68
2023/06/05 00:05:42;;;;;;;4.78;2.00;;;;;;;19.74;33.92;100705.81;4096722;28;20039;-68
2023/06/05 00:07:45;;;;;;;3.85;1.73;;;;;;;19.71;34.34;100709.41;4097943;28;20037;-69
2023/06/05 00:09:48;;;;;;;8.00;2.45;;;;;;;19.72;34.08;100697.06;4097476;28;20070;-68
2023/06/05 00:11:52;;;;;;;4.85;2.00;;;;;;;19.66;34.36;100698.06;4098125;28;20477;-68
2023/06/05 00:13:55;;;;;;;5.18;2.47;;;;;;;19.65;34.12;100706.00;4097351;28;20074;-68
2023/06/05 00:15:58;;;;;;;3.58;1.55;;;;;;;19.55;34.39;100694.75;4098044;28;20062;-68
2023/06/05 00:18:01;;;;;;;4.18;1.98;;;;;;;19.51;34.82;100703.66;4099560;28;20043;-69
2023/06/05 00:20:05;;;;;;;3.17;1.67;;;;;;;19.51;35.02;100701.88;4102687;28;20206;-68
2023/06/05 00:22:11;;;;;;;5.30;2.70;;;;;;;19.59;34.59;100695.56;4084695;29;20139;-69
2023/06/05 00:24:15;;;;;;;3.95;2.30;;;;;;;19.56;35.02;100700.91;4083472;29;20464;-69
2023/06/05 00:26:19;;;;;;;3.13;1.92;;;;;;;19.48;34.79;100694.00;4097681;28;20057;-69
2023/06/05 00:28:25;;;;;;;3.13;1.90;;;;;;;19.43;35.16;100692.34;4096665;28;20405;-69
2023/06/05 00:30:28;;;;;;;3.80;2.08;;;;;;;19.42;34.98;100706.44;4098186;28;20065;-69
2023/06/05 00:32:31;;;;;;;10.82;2.50;;;;;;;19.39;35.08;100694.19;4100647;28;20062;-68
2023/06/05 00:34:34;;;;;;;3.60;2.10;;;;;;;19.38;35.25;100695.09;4096420;29;20043;-68
2023/06/05 00:36:40;;;;;;;6.78;2.25;;;;;;;19.25;35.24;100685.66;4080431;29;20127;-68
2023/06/05 00:38:43;;;;;;;3.90;1.77;;;;;;;19.23;35.78;100701.50;4097218;28;20102;-69
2023/06/05 00:40:46;;;;;;;5.15;2.35;;;;;;;19.22;35.45;100693.63;4102125;28;20497;-69
2023/06/05 00:42:49;;;;;;;3.45;1.95;;;;;;;19.14;35.94;100689.38;4082122;29;20055;-69
2023/06/05 00:44:54;;;;;;;3.97;2.05;;;;;;;19.21;36.12;100694.53;4099767;28;20049;-69
2023/06/05 00:46:57;;;;;;;5.00;1.80;;;;;;;19.11;35.64;100688.53;4101949;28;20069;-69
2023/06/05 00:49:00;;;;;;;3.28;1.63;;;;;;;19.13;36.42;100690.25;4098991;28;20041;-69
2023/06/05 00:51:04;;;;;;;5.45;2.20;;;;;;;19.13;36.17;100692.88;4096808;28;20039;-69
2023/06/05 00:53:08;;;;;;;4.47;2.42;;;;;;;19.18;36.55;100695.44;4102238;28;20067;-69
2023/06/05 00:55:11;;;;;;;12.93;2.40;;;;;;;19.01;36.50;100699.25;4097501;28;20043;-69
2023/06/05 00:57:14;;;;;;;3.53;1.73;;;;;;;18.96;36.45;100697.59;4099058;28;20041;-68
2023/06/05 00:59:18;;;;;;;2.17;1.60;;;;;;;18.82;36.88;100698.66;4097512;28;20051;-69
2023/06/05 01:01:24;;;;;;;3.83;1.83;;;;;;;18.86;36.60;100704.75;4084263;29;20126;-69
2023/06/05 01:03:33;;;;;;;6.45;2.00;;;;;;;18.80;37.18;100710.94;4097898;28;20047;-69
2023/06/05 01:05:37;;;;;;;3.58;2.28;;;;;;;18.73;37.37;100711.94;4079907;29;20459;-69
2023/06/05 01:07:40;;;;;;;4.25;2.10;;;;;;;18.80;36.79;100710.09;4097323;28;20032;-69
2023/06/05 01:09:44;;;;;;;4.35;1.92;;;;;;;18.76;36.85;100706.66;4096947;28;20085;-69
2023/06/05 01:11:54;;;;;;;3.78;1.77;;;;;;;18.76;37.02;100708.41;4084222;29;20454;-69
2023/06/05 01:14:08;;;;;;;3.30;1.98;;;;;;;18.70;37.35;100709.38;4084557;29;20035;-69
2023/06/05 01:16:11;;;;;;;5.35;2.00;;;;;;;18.62;37.01;100711.25;4097426;28;20498;-69
2023/06/05 01:18:18;;;;;;;3.88;1.95;;;;;;;18.59;37.01;100703.41;4100829;28;20129;-68
2023/06/05 01:20:21;;;;;;;2.75;1.40;;;;;;;18.53;37.24;100706.13;4101172;28;20461;-69
2023/06/05 01:22:25;;;;;;;3.70;1.98;;;;;;;18.48;37.22;100714.09;4102643;28;20469;-70
2023/06/05 01:24:29;;;;;;;3.78;1.80;;;;;;;18.45;36.63;100707.09;4106124;28;20098;-69
2023/06/05 01:26:40;;;;;;;3.63;1.92;;;;;;;18.30;37.04;100704.69;4089163;29;20120;-68
2023/06/05 01:28:48;;;;;;;2.53;1.55;;;;;;;18.19;37.37;100704.81;4070644;29;20419;-68
2023/06/05 01:31:00;;;;;;;4.45;1.90;;;;;;;18.10;37.48;100703.19;4102410;28;20051;-68
2023/06/05 01:33:08;;;;;;;6.15;1.98;;;;;;;18.05;37.50;100694.50;4084884;29;20049;-68
2023/06/05 01:35:17;;;;;;;5.88;2.28;;;;;;;17.97;37.67;100701.59;4102876;28;21984;-69
2023/06/05 01:37:24;;;;;;;3.70;1.80;;;;;;;18.00;37.81;100698.94;4101532;28;20117;-68
2023/06/05 01:39:30;;;;;;;4.78;2.03;;;;;;;18.01;37.40;100702.44;4107685;28;20082;-68
2023/06/05 01:41:34;;;;;;;4.40;1.80;;;;;;;18.03;37.31;100700.66;4070223;29;20586;-68
2023/06/05 01:43:39;;;;;;;2.92;1.73;;;;;;;17.97;37.27;100704.22;4103567;28;20149;-68
2023/06/05 01:45:43;;;;;;;5.57;1.90;;;;;;;17.90;37.74;100703.47;4103613;28;20102;-68
2023/06/05 01:47:48;;;;;;;3.15;2.20;;;;;;;17.88;37.83;100696.44;4105441;28;20035;-68
2023/06/05 01:49:51;;;;;;;6.65;1.70;;;;;;;17.87;37.44;100700.84;4102341;28;20062;-68
2023/06/05 01:51:55;;;;;;;2.75;1.70;;;;;;;17.75;37.69;100704.44;4090792;29;20118;-69
2023/06/05 01:53:58;;;;;;;3.63;2.08;;;;;;;17.73;37.76;100700.97;4101659;28;20521;-68
2023/06/05 01:56:03;;;;;;;4.93;2.03;;;;;;;17.73;37.55;100698.34;4105199;28;20035;-68
2023/06/05 01:58:06;;;;;;;6.07;2.30;;;;;;;17.68;37.88;100697.50;4107789;28;20035;-68
2023/06/05 02:00:13;;;;;;;3.45;1.98;;;;;;;17.66;37.79;100696.69;4086590;29;20762;-68
2023/06/05 02:02:16;;;;;;;4.22;2.10;;;;;;;17.70;37.72;100694.91;4142711;23;20426;-64
2023/06/05 02:04:20;;;;;;;2.55;1.55;;;;;;;17.69;37.86;100696.63;4132435;28;20532;-64
2023/06/05 02:06:24;;;;;;;2.85;1.83;;;;;;;17.60;37.93;100697.63;4147961;28;20044;-64
2023/06/05 02:08:28;;;;;;;3.83;1.70;;;;;;;17.62;38.02;100693.22;4127847;28;20484;-64
2023/06/05 02:10:31;;;;;;;2.33;1.48;;;;;;;17.62;37.99;100687.97;4133047;28;20070;-64
2023/06/05 02:12:37;;;;;;;6.20;1.77;;;;;;;17.60;37.73;100687.09;4118894;28;20122;-64
2023/06/05 02:14:44;;;;;;;6.85;1.98;;;;;;;17.59;38.13;100687.13;4133336;28;20034;-64
2023/06/05 02:16:48;;;;;;;12.55;2.47;;;;;;;17.50;38.36;100695.13;4116839;28;20507;-64
2023/06/05 02:18:51;;;;;;;3.53;2.00;;;;;;;17.53;38.09;100692.44;4101286;28;20575;-64
2023/06/05 02:20:55;;;;;;;7.90;1.98;;;;;;;17.53;38.03;100693.31;4127376;28;20295;-64
2023/06/05 02:22:58;;;;;;;6.55;2.20;;;;;;;17.47;38.15;100696.00;4133069;28;20571;-65
2023/06/05 02:25:01;;;;;;;4.37;2.07;;;;;;;17.39;38.35;100695.22;4134540;28;20169;-64
2023/06/05 02:27:05;;;;;;;5.43;1.80;;;;;;;17.31;38.57;100694.44;4131551;28;20376;-64
2023/06/05 02:29:09;;;;;;;4.47;1.92;;;;;;;17.32;38.60;100697.03;4115608;28;20458;-64
2023/06/05 02:31:16;;;;;;;5.97;1.65;;;;;;;17.27;38.85;100691.84;4114156;28;20102;-65
2023/06/05 02:33:19;;;;;;;3.33;1.88;;;;;;;17.22;38.69;100684.88;4129220;28;20551;-64
2023/06/05 02:35:23;;;;;;;4.85;1.90;;;;;;;17.24;39.03;100693.59;4127848;28;20047;-64
2023/06/05 02:37:27;;;;;;;6.20;1.60;;;;;;;17.26;38.85;100691.84;4130207;28;20404;-65
2023/06/05 02:39:31;;;;;;;10.13;2.13;;;;;;;17.19;38.97;100682.28;4129911;28;20046;-64
2023/06/05 02:41:34;;;;;;;3.83;1.90;;;;;;;17.13;38.96;100684.94;4130592;28;20126;-65
2023/06/05 02:43:39;;;;;;;6.13;1.92;;;;;;;17.15;38.91;100684.06;4130218;28;20475;-65
2023/06/05 02:45:43;;;;;;;2.90;1.50;;;;;;;17.19;39.18;100691.03;4127193;28;20069;-65
2023/06/05 02:47:46;;;;;;;3.00;1.90;;;;;;;17.20;39.03;100691.88;4129721;28;20122;-65
2023/06/05 02:49:49;;;;;;;5.03;1.90;;;;;;;17.23;39.10;100689.22;4114229;28;20618;-64
2023/06/05 02:51:52;;;;;;;4.15;1.67;;;;;;;17.20;38.92;100692.78;4123130;28;20125;-64
2023/06/05 02:53:55;;;;;;;4.70;2.10;;;;;;;17.13;39.09;100690.19;4123315;28;20042;-64
2023/06/05 02:56:01;;;;;;;6.15;2.08;;;;;;;17.15;38.90;100694.56;4127243;28;20041;-64
2023/06/05 02:58:05;;;;;;;7.22;2.20;;;;;;;17.12;39.15;100683.22;4109338;28;20043;-65
2023/06/05 03:00:16;;;;;;;5.60;1.98;;;;;;;17.14;39.21;100679.69;4128451;28;20053;-64
2023/06/05 03:02:27;;;;;;;3.83;1.77;;;;;;;17.15;39.17;100693.72;4113305;28;20048;-65
2023/06/05 03:04:30;;;;;;;6.30;2.30;;;;;;;17.17;39.14;100684.94;4129806;28;20046;-65
2023/06/05 03:06:35;;;;;;;5.22;1.88;;;;;;;17.09;39.18;100684.97;4113649;28;20121;-64
2023/06/05 03:08:41;;;;;;;2.85;1.80;;;;;;;17.13;39.07;100687.56;4113775;28;20039;-65
2023/06/05 03:10:48;;;;;;;3.67;1.80;;;;;;;17.12;38.99;100691.09;4127364;28;20042;-65
2023/06/05 03:12:51;;;;;;;3.63;1.98;;;;;;;17.12;39.36;100691.09;4111931;28;20473;-64
2023/06/05 03:14:54;;;;;;;6.35;2.53;;;;;;;17.13;39.27;100684.94;4113272;28;20510;-64
2023/06/05 03:16:58;;;;;;;5.00;2.80;;;;;;;17.11;39.21;100692.84;4129472;28;20058;-64
2023/06/05 03:19:02;;;;;;;5.35;2.40;;;;;;;17.14;39.08;100691.94;4113665;28;20097;-64
2023/06/05 03:21:06;;;;;;;4.93;1.92;;;;;;;17.10;39.43;100689.34;4108425;28;20043;-64
2023/06/05 03:23:09;;;;;;;5.45;2.38;;;;;;;17.05;39.46;100688.50;4128533;28;20042;-63
2023/06/05 03:25:13;;;;;;;5.18;2.33;;;;;;;17.10;39.12;100686.72;4113247;28;20039;-63
2023/06/05 03:27:18;;;;;;;3.70;2.10;;;;;;;17.08;39.20;100693.75;4110448;28;20101;-64
2023/06/05 03:29:21;;;;;;;5.20;2.25;;;;;;;17.02;39.27;100699.03;4129511;28;20151;-63
2023/06/05 03:31:24;;;;;;;8.50;2.03;;;;;;;17.01;39.21;100696.44;4127093;28;20649;-64
2023/06/05 03:33:27;;;;;;;3.53;2.05;;;;;;;16.98;39.55;100696.47;4129997;28;20404;-64
2023/06/05 03:35:32;;;;;;;4.35;2.53;;;;;;;16.97;39.66;100697.34;4113284;28;20062;-64
2023/06/05 03:37:40;;;;;;;4.32;2.22;;;;;;;16.99;39.72;100693.81;4103459;28;20043;-64
2023/06/05 03:39:43;;;;;;;3.85;2.03;;;;;;;17.00;39.55;100700.84;4126003;28;20382;-64
2023/06/05 03:41:47;;;;;;;5.75;2.13;;;;;;;16.93;39.19;100702.63;4128506;28;20042;-64
2023/06/05 03:43:50;;;;;;;3.70;2.30;;;;;;;17.00;39.68;100695.56;4112067;28;20047;-64
2023/06/05 03:45:53;;;;;;;5.40;2.10;;;;;;;16.99;39.57;100699.09;4112357;28;20035;-65
2023/06/05 03:47:59;;;;;;;5.05;2.05;;;;;;;16.99;39.82;100699.09;4129417;28;20031;-64
2023/06/05 03:50:06;;;;;;;4.75;2.20;;;;;;;16.98;39.52;100694.72;4093070;29;20138;-66
2023/06/05 03:52:14;;;;;;;7.30;2.35;;;;;;;17.03;39.75;100700.81;4112366;28;20035;-67
2023/06/05 03:54:17;;;;;;;6.03;2.25;;;;;;;17.01;39.83;100702.59;4126810;28;20564;-67
2023/06/05 03:56:21;;;;;;;6.68;2.70;;;;;;;17.01;39.78;100696.44;4123475;28;20101;-67
2023/06/05 03:58:26;;;;;;;8.32;2.53;;;;;;;17.01;39.35;100701.69;4128240;28;20047;-67
2023/06/05 04:00:30;;;;;;;6.20;2.53;;;;;;;16.99;39.69;100698.22;4128738;28;20185;-67
2023/06/05 04:02:33;;;;;;;6.05;2.45;;;;;;;16.99;39.70;100701.72;4112026;28;20515;-66
2023/06/05 04:04:36;;;;;;;8.77;2.78;;;;;;;16.98;39.65;100705.25;4127115;28;20050;-67
2023/06/05 04:06:40;;;;;;;4.95;2.45;;;;;;;17.11;40.57;100708.59;4126250;28;20042;-64
2023/06/05 04:08:45;;;;;;;4.07;2.40;;;;;;;17.33;40.62;100697.91;4127339;28;20133;-64
2023/06/05 04:10:48;;;;;;;5.18;1.90;;;;;;;17.38;39.26;100702.22;4127082;28;20129;-64
2023/06/05 04:12:52;;;;;;;8.13;2.40;;;;;;;17.33;39.45;100706.66;4127518;28;20408;-64
2023/06/05 04:14:56;;;;;;;4.00;2.10;;;;;;;17.32;39.31;100709.28;4111337;28;20031;-64
2023/06/05 04:16:59;;;;;;;3.67;1.92;;;;;;;17.38;39.17;100711.88;4128740;28;20039;-65
2023/06/05 04:19:02;;;;;;;4.05;2.00;;;;;;;17.38;39.01;100707.50;4127945;28;20034;-65
2023/06/05 04:21:05;;;;;;;7.13;2.22;;;;;;;17.34;39.09;100704.91;4127936;28;20034;-70
2023/06/05 04:23:10;;;;;;;8.23;2.60;;;;;;;17.40;38.71;100708.31;4108835;28;20125;-70
2023/06/05 04:25:18;;;;;;;4.05;2.22;;;;;;;17.35;39.35;100711.91;4113200;28;20034;-70
2023/06/05 04:27:28;;;;;;;7.07;2.47;;;;;;;17.33;39.13;100711.03;4125840;28;20035;-70
2023/06/05 04:29:32;;;;;;;6.38;2.47;;;;;;;17.22;38.99;100708.53;4126855;28;20038;-70
2023/06/05 04:31:35;;;;;;;6.30;2.10;;;;;;;17.19;39.11;100706.78;4112246;28;20051;-69
2023/06/05 04:33:38;;;;;;;5.38;2.13;;;;;;;17.21;39.05;100709.41;4111652;28;20038;-69
2023/06/05 04:35:41;;;;;;;5.03;1.92;;;;;;;17.23;39.13;100712.88;4127207;28;20042;-70
2023/06/05 04:37:44;;;;;;;4.90;2.35;;;;;;;17.23;39.07;100708.50;4121356;28;20076;-70
2023/06/05 04:39:46;;;;;;;6.75;2.53;;;;;;;17.24;39.16;100712.91;4129328;28;20039;-70
2023/06/05 04:41:51;;;;;;;3.65;1.90;;;;;;;17.24;38.76;100712.00;4112118;28;20039;-70
2023/06/05 04:44:16;;;;;;;8.37;2.10;;;;;;;17.22;39.21;100712.00;4125409;28;20074;-70
2023/06/05 04:46:19;;;;;;;8.10;2.70;;;;;;;17.22;39.38;100712.00;4124423;28;20034;-70
2023/06/05 04:48:22;;;;;;;5.97;2.00;;;;;;;17.28;39.24;100711.09;4122781;28;21653;-70
2023/06/05 04:50:27;;;;;;;5.20;2.30;;;;;;;17.37;38.86;100712.75;4128539;28;20041;-70
2023/06/05 04:52:43;;;;;;;3.72;2.05;;;;;;;17.32;39.12;100711.91;4111268;28;20073;-70
2023/06/05 04:54:46;;;;;;;8.60;2.60;;;;;;;17.40;38.84;100716.22;4128775;28;20441;-70
2023/06/05 04:56:50;;;;;;;10.20;2.63;;;;;;;17.41;38.83;100712.72;4107548;28;20042;-70
2023/06/05 04:58:55;;;;;;;8.73;2.40;;;;;;;17.49;38.99;100709.13;4095371;29;20047;-70
2023/06/05 05:01:05;;;;;;;6.55;2.75;;;;;;;17.51;38.68;100718.75;4110104;28;20378;-70
2023/06/05 05:03:13;;;;;;;5.95;2.72;;;;;;;17.57;38.95;100721.31;4124121;28;20118;-70
2023/06/05 05:05:16;;;;;;;5.40;2.28;;;;;;;17.65;38.65;100713.34;4128398;28;20030;-70
2023/06/05 05:07:22;;;;;;;11.23;3.50;;;;;;;17.75;38.61;100714.97;4112138;28;20046;-70
2023/06/05 05:09:25;;;;;;;8.02;2.55;;;;;;;17.73;38.28;100718.53;4111882;28;20563;-70
2023/06/05 05:11:28;;;;;;;11.43;2.60;;;;;;;17.71;38.84;100715.03;4127717;28;20046;-70
2023/06/05 05:13:33;;;;;;;3.78;1.95;;;;;;;17.71;38.55;100718.56;4111356;28;20481;-70
2023/06/05 05:15:36;;;;;;;10.15;2.53;;;;;;;17.77;38.68;100714.94;4127586;28;20038;-70
2023/06/05 05:17:39;;;;;;;8.40;2.55;;;;;;;17.85;38.22;100723.63;4112363;28;20524;-70
2023/06/05 05:19:42;;;;;;;6.40;2.33;;;;;;;17.88;38.63;100726.22;4127979;28;20108;-70
2023/06/05 05:21:46;;;;;;;12.52;2.63;;;;;;;17.96;38.10;100721.78;4124105;28;20530;-70
2023/06/05 05:23:50;;;;;;;8.65;2.72;;;;;;;18.03;37.99;100727.81;4123802;28;20520;-70
2023/06/05 05:25:54;;;;;;;5.82;2.70;;;;;;;18.05;38.40;100726.06;4111850;28;20075;-70
2023/06/05 05:27:56;;;;;;;11.27;2.97;;;;;;;18.16;38.67;100725.91;4129119;28;20043;-70
2023/06/05 05:30:01;;;;;;;8.93;2.83;;;;;;;18.26;37.85;100729.31;4128926;28;20069;-70
2023/06/05 05:32:05;;;;;;;12.75;2.25;;;;;;;18.27;38.39;100728.44;4111280;28;20034;-70
2023/06/05 05:34:08;;;;;;;13.80;3.00;;;;;;;18.35;37.64;100723.03;4111391;28;20031;-71
2023/06/05 05:36:11;;;;;;;15.80;3.17;;;;;;;18.44;37.34;100730.81;4129479;28;20069;-70
2023/06/05 05:38:15;;;;;;;22.30;3.70;;;;;;;18.59;37.35;100725.34;4126106;28;20054;-70
2023/06/05 05:40:18;;;;;;;5.80;2.40;;;;;;;18.45;37.56;100725.53;4111671;28;20035;-70
2023/06/05 05:42:21;;;;;;;14.23;2.92;;;;;;;18.51;38.04;100724.56;4126924;28;20049;-70
2023/06/05 05:44:24;;;;;;;14.55;3.15;;;;;;;18.64;37.32;100731.38;4111858;28;20047;-70
2023/06/05 05:46:28;;;;;;;18.65;3.75;;;;;;;18.71;37.78;100729.53;4125485;28;20062;-70
2023/06/05 05:48:32;;;;;;;22.48;3.90;;;;;;;18.80;37.01;100723.25;4128383;28;20485;-70
2023/06/05 05:50:34;;;;;;;12.52;2.78;;;;;;;18.76;37.15;100725.09;4128575;28;20488;-70
2023/06/05 05:52:38;;;;;;;11.02;2.85;;;;;;;18.84;36.99;100727.59;4126737;28;20066;-69
2023/06/05 05:54:41;;;;;;;19.67;3.65;;;;;;;18.89;37.36;100731.03;4111088;28;20054;-70
2023/06/05 05:56:44;;;;;;;9.07;3.00;;;;;;;18.92;37.24;100728.34;4128714;28;20092;-70
2023/06/05 05:58:47;;;;;;;9.35;2.45;;;;;;;18.91;37.50;100731.03;4124649;28;21573;-70
2023/06/05 06:00:50;;;;;;;10.77;2.92;;;;;;;19.04;37.62;100727.31;4121995;28;20074;-70
2023/06/05 06:02:54;;;;;;;15.93;3.72;;;;;;;19.17;36.96;100730.59;4124991;28;20066;-70
2023/06/05 06:04:57;;;;;;;;;;;;;;;19.17;37.00;100723.56;4129207;28;20544;-70
2023/06/05 06:07:00;;;;;;;19.35;4.85;;;;;;;19.26;37.12;100721.66;4122799;28;19929;-70
2023/06/05 06:09:04;;;;;;;13.30;3.70;;;;;;;19.40;36.67;100719.66;4114138;28;20065;-69
2023/06/05 06:11:07;;;;;;;14.32;3.20;;;;;;;19.50;36.38;100723.00;4131649;28;20042;-68
2023/06/05 06:13:11;;;;;;;14.18;3.38;;;;;;;19.54;36.14;100720.25;4128600;28;20499;-69
2023/06/05 06:15:14;;;;;;;14.20;3.60;;;;;;;19.59;35.40;100721.94;4128640;28;20504;-69
2023/06/05 06:17:17;;;;;;;9.55;2.80;;;;;;;19.64;35.59;100720.06;4129120;28;20061;-70
2023/06/05 06:19:23;;;;;;;10.15;2.95;;;;;;;19.71;35.50;100719.06;4129970;28;20412;-70
2023/06/05 06:21:26;;;;;;;14.95;3.30;;;;;;;19.66;36.30;100724.44;4128487;28;20042;-69
2023/06/05 06:23:29;;;;;;;15.25;2.72;;;;;;;19.82;35.84;100714.47;4113918;28;20560;-70
2023/06/05 06:25:32;;;;;;;18.02;3.17;;;;;;;20.04;35.15;100721.97;4132331;28;20066;-70
2023/06/05 06:27:35;;;;;;;8.68;2.67;;;;;;;19.91;34.79;100718.72;4128642;28;20046;-69
2023/06/05 06:29:48;;;;;;;9.50;2.55;;;;;;;19.92;33.98;100719.56;4132160;28;20484;-69
2023/06/05 06:31:52;;;;;;;7.88;2.45;;;;;;;19.96;34.35;100726.53;4130218;28;20121;-69
2023/06/05 06:33:55;;;;;;;8.43;2.70;;;;;;;20.08;34.06;100726.28;4111832;28;20046;-69
2023/06/05 06:36:00;;;;;;;5.20;2.40;;;;;;;20.11;34.01;100722.72;4112553;28;20452;-69
2023/06/05 06:38:03;;;;;;;13.18;3.03;;;;;;;20.07;33.79;100724.53;4128509;28;20038;-70
2023/06/05 06:40:09;;;;;;;8.57;2.92;;;;;;;20.29;33.80;100730.22;4131675;28;20477;-69
2023/06/05 06:42:12;;;;;;;6.90;2.60;;;;;;;20.34;33.58;100735.41;4128657;28;20047;-70
2023/06/05 06:44:18;;;;;;;8.88;2.17;;;;;;;20.33;33.83;100725.75;4110444;28;20043;-69
2023/06/05 06:46:21;;;;;;;7.97;2.47;;;;;;;20.53;34.59;100733.22;4113794;28;20042;-69
2023/06/05 06:48:24;;;;;;;13.30;3.08;;;;;;;20.60;33.36;100731.31;4130615;28;20042;-69
2023/06/05 06:50:27;;;;;;;7.35;2.70;;;;;;;20.61;33.62;100735.72;4131532;28;20101;-70
2023/06/05 06:52:31;;;;;;;6.40;2.63;;;;;;;20.63;33.66;100731.25;4130534;28;20416;-70
2023/06/05 06:54:34;;;;;;;7.60;2.42;;;;;;;20.77;33.50;100734.47;4131881;28;20085;-70
2023/06/05 06:56:37;;;;;;;11.45;2.85;;;;;;;20.88;32.57;100728.91;4131505;28;20078;-69
2023/06/05 06:58:40;;;;;;;12.02;2.78;;;;;;;20.87;32.84;100738.63;4113015;28;20535;-69
2023/06/05 07:00:43;;;;;;;7.65;2.33;;;;;;;20.89;32.75;100739.44;4125375;28;20074;-70
2023/06/05 07:02:46;;;;;;;7.25;2.70;;;;;;;20.97;32.30;100736.63;4130252;28;20043;-70
2023/06/05 07:04:50;;;;;;;3.42;1.98;;;;;;;20.90;32.38;100735.91;4130893;28;20121;-70
2023/06/05 07:06:53;;;;;;;5.53;1.90;;;;;;;20.90;32.78;100732.41;4125835;28;20046;-70
2023/06/05 07:08:57;;;;;;;7.90;2.53;;;;;;;21.21;31.75;100732.50;4130239;28;20065;-69
2023/06/05 07:11:00;;;;;;;6.50;2.50;;;;;;;21.14;31.83;100732.69;4125227;28;20126;-70
2023/06/05 07:13:03;;;;;;;7.32;2.20;;;;;;;21.09;32.80;100732.81;4130232;28;20031;-70
2023/06/05 07:15:06;;;;;;;9.68;2.80;;;;;;;21.18;33.12;100732.56;4111008;28;20045;-70
2023/06/05 07:17:09;;;;;;;9.90;2.45;;;;;;;21.38;32.83;100736.50;4113761;28;20125;-70
2023/06/05 07:19:14;;;;;;;4.18;2.42;;;;;;;21.49;31.89;100729.13;4130345;28;20053;-70
2023/06/05 07:21:17;;;;;;;6.03;2.17;;;;;;;21.53;32.13;100738.75;4130972;28;20097;-70
2023/06/05 07:23:20;;;;;;;6.35;2.08;;;;;;;21.48;32.67;100726.53;4128719;28;20057;-71
2023/06/05 07:25:25;;;;;;;8.95;2.35;;;;;;;21.58;32.65;100728.94;4130117;28;20054;-71
2023/06/05 07:27:29;;;;;;;5.47;2.55;;;;;;;21.81;31.45;100731.84;4131437;28;20093;-71
2023/06/05 07:29:32;;;;;;;3.30;2.10;;;;;;;21.71;32.26;100736.50;4130835;28;20044;-71
2023/06/05 07:31:35;;;;;;;8.90;2.42;;;;;;;21.77;32.56;100729.28;4113259;28;20042;-70
2023/06/05 07:33:37;;;;;;;9.82;2.75;;;;;;;21.84;32.21;100729.09;4126122;28;20045;-71
2023/06/05 07:35:40;;;;;;;5.00;2.50;;;;;;;21.91;32.38;100728.88;4131472;28;20042;-71
2023/06/05 07:37:43;;;;;;;7.60;2.53;;;;;;;21.98;32.65;100724.28;4111693;28;20047;-71
2023/06/05 07:39:47;;;;;;;7.00;2.42;;;;;;;22.16;31.68;100728.16;4126078;28;20042;-71
2023/06/05 07:41:51;;;;;;;10.18;2.42;;;;;;;22.18;31.82;100726.34;4130476;28;20037;-71
2023/06/05 07:43:54;;;;;;;11.68;2.70;;;;;;;22.14;32.41;100724.72;4126854;28;20527;-71
2023/06/05 07:45:57;;;;;;;10.48;2.55;;;;;;;22.22;32.95;100727.13;4113259;28;20551;-71
2023/06/05 07:48:00;;;;;;;8.57;2.60;;;;;;;22.34;32.65;100725.91;4130679;28;20065;-70
2023/06/05 07:50:05;;;;;;;8.10;2.67;;;;;;;22.38;31.83;100722.25;4128810;28;20031;-70
2023/06/05 07:52:08;;;;;;;6.70;2.15;;;;;;;22.31;32.34;100725.06;4109316;28;20030;-71
2023/06/05 07:54:13;;;;;;;7.63;1.95;;;;;;;22.38;32.54;100731.06;4128212;28;20066;-72
2023/06/05 07:56:17;;;;;;;10.25;2.72;;;;;;;22.54;33.04;100726.16;4130349;28;20563;-70
2023/06/05 07:58:22;;;;;;;8.02;2.35;;;;;;;22.66;31.56;100728.44;4125026;28;20129;-71
2023/06/05 08:00:26;;;;;;;9.98;2.83;;;;;;;22.75;31.91;100731.69;4128688;28;20034;-70
2023/06/05 08:02:29;;;;;;;10.52;2.47;;;;;;;22.63;31.29;100728.53;4147613;23;20420;-70
2023/06/05 08:04:33;;;;;;;8.77;2.55;;;;;;;22.63;31.29;100723.25;4145674;28;20069;-69
2023/06/05 08:06:37;;;;;;;6.80;2.20;;;;;;;22.72;30.36;100724.72;4125934;28;20046;-68
2023/06/05 08:08:42;;;;;;;8.65;2.83;;;;;;;22.69;31.02;100719.50;4126288;28;20039;-69
2023/06/05 08:10:45;;;;;;;8.55;2.65;;;;;;;22.82;31.07;100719.97;4128742;28;20500;-69
2023/06/05 08:12:48;;;;;;;6.63;2.55;;;;;;;22.85;30.60;100722.53;4142446;28;20431;-69
2023/06/05 08:14:53;;;;;;;7.10;2.70;;;;;;;22.78;30.42;100708.63;4144158;28;20166;-68
2023/06/05 08:16:56;;;;;;;5.20;2.35;;;;;;;22.85;30.91;100717.22;4144794;28;20060;-68
2023/06/05 08:18:59;;;;;;;5.50;2.58;;;;;;;22.96;30.59;100709.78;4122864;28;20034;-68
2023/06/05 08:21:03;;;;;;;5.25;2.47;;;;;;;23.20;30.42;100712.56;4143125;28;20066;-68
2023/06/05 08:23:06;;;;;;;4.35;2.42;;;;;;;23.06;29.81;100707.69;4143180;28;20061;-68
2023/06/05 08:25:10;;;;;;;5.83;2.77;;;;;;;23.12;30.68;100707.53;4125612;28;20072;-69
2023/06/05 08:27:12;;;;;;;8.23;2.42;;;;;;;23.07;30.96;100709.44;4143108;28;20129;-69
2023/06/05 08:29:15;;;;;;;9.35;2.97;;;;;;;23.13;31.32;100703.97;4139427;28;20038;-68
2023/06/05 08:31:20;;;;;;;11.43;3.20;;;;;;;23.32;31.16;100706.84;4128682;28;20038;-68
2023/06/05 08:33:23;;;;;;;7.32;2.60;;;;;;;23.41;31.19;100694.16;4140719;28;20088;-68
2023/06/05 08:35:26;;;;;;;3.92;2.47;;;;;;;23.42;31.19;100699.44;4143715;28;20571;-69
2023/06/05 08:37:29;;;;;;;7.63;2.92;;;;;;;23.65;31.08;100698.56;4145502;28;20042;-69
2023/06/05 08:39:33;;;;;;;9.50;2.65;;;;;;;23.63;31.42;100688.97;4126885;28;20404;-69
2023/06/05 08:41:37;;;;;;;7.43;2.78;;;;;;;23.68;31.55;100693.19;4143271;28;20038;-68
2023/06/05 08:43:41;;;;;;;5.40;2.38;;;;;;;23.65;31.57;100693.25;4144353;28;20034;-69
2023/06/05 08:45:44;;;;;;;7.50;2.75;;;;;;;23.81;31.39;100687.41;4141528;28;20041;-69
2023/06/05 08:47:52;;;;;;;7.68;2.50;;;;;;;24.00;30.37;100692.91;4138966;28;20045;-69
2023/06/05 08:49:55;;;;;;;12.27;3.35;;;;;;;23.90;31.54;100692.38;4143096;28;20125;-69
2023/06/05 08:52:02;;;;;;;17.30;2.92;;;;;;;23.99;30.72;100694.72;4123480;28;20050;-68
2023/06/05 08:54:09;;;;;;;10.02;3.20;;;;;;;23.94;30.67;100688.69;4142128;28;20399;-69
2023/06/05 08:56:14;;;;;;;5.60;2.50;;;;;;;23.88;31.23;100694.25;4143231;28;20088;-69
2023/06/05 08:58:17;;;;;;;6.85;3.00;;;;;;;24.12;30.76;100688.91;4122657;28;20053;-69
2023/06/05 09:00:22;;;;;;;11.18;2.58;;;;;;;24.20;30.41;100686.84;4141496;28;20048;-68
2023/06/05 09:02:25;;;;;;;5.95;2.50;;;;;;;24.13;31.24;100686.19;4142877;28;20508;-69
2023/06/05 09:04:32;;;;;;;9.15;2.83;;;;;;;24.26;30.85;100691.06;4142129;28;20045;-69
2023/06/05 09:06:36;;;;;;;4.93;2.15;;;;;;;24.26;30.95;100686.59;4143545;28;20033;-68
2023/06/05 09:08:39;;;;;;;6.47;2.97;;;;;;;24.30;30.77;100680.25;4144482;28;20419;-69
2023/06/05 09:10:41;;;;;;;10.10;3.17;;;;;;;24.32;30.67;100680.19;4141256;28;20771;-68
2023/06/05 09:12:54;;;;;;;7.20;3.00;;;;;;;24.46;30.15;100682.28;4127244;28;20399;-69
2023/06/05 09:14:57;;;;;;;7.78;2.78;;;;;;;24.44;30.75;100686.78;4143350;28;20045;-69
2023/06/05 09:17:01;;;;;;;6.22;2.03;;;;;;;24.37;30.84;100681.72;4143392;28;20033;-68
2023/06/05 09:19:05;;;;;;;9.57;2.83;;;;;;;24.43;31.40;100682.41;4136358;28;20118;-68
2023/06/05 09:21:13;;;;;;;8.10;3.70;;;;;;;24.52;31.16;100674.06;4142407;28;20448;-69
2023/06/05 09:23:26;;;;;;;6.30;2.88;;;;;;;24.78;30.16;100675.69;4143516;28;20052;-68
2023/06/05 09:25:47;;;;;;;4.25;2.45;;;;;;;24.77;30.64;100673.97;4142326;28;20160;-68
2023/06/05 09:28:06;;;;;;;5.13;2.72;;;;;;;24.78;30.91;100677.47;4141131;28;20518;-68
2023/06/05 09:30:09;;;;;;;5.13;2.78;;;;;;;24.99;30.69;100673.91;4121141;28;20074;-68
2023/06/05 09:32:19;;;;;;;9.05;2.88;;;;;;;25.11;29.71;100671.66;4123677;28;20053;-69
2023/06/05 09:34:30;;;;;;;6.65;3.13;;;;;;;24.94;30.39;100664.41;4144360;28;20484;-68
2023/06/05 09:36:35;;;;;;;11.13;3.20;;;;;;;25.04;30.08;100661.28;4142925;28;20033;-69
2023/06/05 09:38:38;;;;;;;;;;;;;;;25.05;30.38;100659.50;4142167;28;20125;-69